createdAt,value
2022-08-17T00:00:05.671Z,66.15
2022-08-17T00:02:36.781Z,46.65
2022-08-17T00:05:10.809Z,65.85
2022-08-17T00:07:38.309Z,45.20
2022-08-17T00:10:06.658Z,35.00
2022-08-17T00:12:44.350Z,84.20
2022-08-17T00:15:13.748Z,50.90
2022-08-17T00:17:43.135Z,61.30
2022-08-17T00:20:13.355Z,28.55
2022-08-17T00:22:42.533Z,79.65
2022-08-17T00:25:14.143Z,32.85
2022-08-17T00:27:42.174Z,14.02
2022-08-17T00:30:12.331Z,31.95
2022-08-17T00:33:14.414Z,25.55
2022-08-17T00:35:30.660Z,13.63
2022-08-17T00:37:58.228Z,13.75
2022-08-17T00:40:27.159Z,12.07
2022-08-17T00:43:14.060Z,11.88
2022-08-17T00:45:42.141Z,10.82
2022-08-17T00:48:29.109Z,11.23
2022-08-17T00:51:02.403Z,10.55
2022-08-17T00:53:32.073Z,10.27
2022-08-17T00:56:02.572Z,11.70
2022-08-17T00:58:36.545Z,18.08
2022-08-17T01:01:06.381Z,16.85
2022-08-17T01:03:36.663Z,12.63
2022-08-17T01:06:07.095Z,11.10
2022-08-17T01:08:36.744Z,13.20
2022-08-17T01:11:05.378Z,11.57
2022-08-17T01:13:40.657Z,12.10
2022-08-17T01:16:19.623Z,10.88
2022-08-17T01:18:52.076Z,11.82
2022-08-17T01:21:25.443Z,10.57
2022-08-17T01:23:54.311Z,10.80
2022-08-17T01:26:22.801Z,10.63
2022-08-17T01:28:54.687Z,10.73
2022-08-17T01:31:25.152Z,11.23
2022-08-17T01:33:53.271Z,10.82
2022-08-17T01:36:20.878Z,12.98
2022-08-17T01:38:48.403Z,9.98
2022-08-17T01:41:17.865Z,11.85
2022-08-17T01:43:51.859Z,11.48
2022-08-17T01:46:23.796Z,12.60
2022-08-17T01:48:51.474Z,10.50
2022-08-17T01:51:20.119Z,11.18
2022-08-17T01:53:51.484Z,11.48
2022-08-17T01:56:23.450Z,11.13
2022-08-17T01:58:51.339Z,13.68
2022-08-17T02:01:22.212Z,10.82
2022-08-17T02:03:56.327Z,11.35
2022-08-17T02:06:28.942Z,12.35
2022-08-17T02:09:02.340Z,12.50
2022-08-17T02:11:34.762Z,13.40
2022-08-17T02:14:04.118Z,13.32
2022-08-17T02:16:37.027Z,10.52
2022-08-17T02:19:07.910Z,13.05
2022-08-17T02:21:35.624Z,13.10
2022-08-17T02:24:04.151Z,13.75
2022-08-17T02:26:33.121Z,12.82
2022-08-17T02:29:00.630Z,13.98
2022-08-17T02:31:28.224Z,13.95
2022-08-17T02:33:56.638Z,14.50
2022-08-17T02:36:32.239Z,15.95
2022-08-17T02:39:00.704Z,13.77
2022-08-17T02:41:28.333Z,19.88
2022-08-17T02:43:57.165Z,13.23
2022-08-17T02:46:24.685Z,18.48
2022-08-17T02:48:52.184Z,16.90
2022-08-17T02:51:19.667Z,15.88
2022-08-17T02:53:47.661Z,16.73
2022-08-17T02:56:15.354Z,16.33
2022-08-17T02:58:42.857Z,13.95
2022-08-17T03:01:12.638Z,16.17
2022-08-17T03:03:41.112Z,13.32
2022-08-17T03:06:09.521Z,19.17
2022-08-17T03:08:37.379Z,14.98
2022-08-17T03:11:05.056Z,12.98
2022-08-17T03:13:32.581Z,13.05
2022-08-17T03:16:00.183Z,17.92
2022-08-17T03:18:29.045Z,18.52
2022-08-17T03:20:58.868Z,13.98
2022-08-17T03:23:28.055Z,19.27
2022-08-17T03:25:57.653Z,16.90
2022-08-17T03:28:25.873Z,22.13
2022-08-17T03:30:53.727Z,22.38
2022-08-17T03:33:21.625Z,21.77
2022-08-17T03:35:50.929Z,21.20
2022-08-17T03:38:18.724Z,20.25
2022-08-17T03:40:58.967Z,14.00
2022-08-17T03:43:29.918Z,13.70
2022-08-17T03:46:28.248Z,17.80
2022-08-17T03:49:20.436Z,14.38
2022-08-17T03:52:07.018Z,14.93
2022-08-17T03:54:52.409Z,14.48
2022-08-17T03:57:20.125Z,15.70
2022-08-17T03:59:47.889Z,12.85
2022-08-17T04:02:19.713Z,17.92
2022-08-17T04:04:50.578Z,17.98
2022-08-17T04:07:19.782Z,16.70
2022-08-17T04:09:47.364Z,17.92
2022-08-17T04:12:15.873Z,18.20
2022-08-17T04:14:53.209Z,20.65
2022-08-17T04:17:23.492Z,18.15
2022-08-17T04:19:51.034Z,17.25
2022-08-17T04:22:31.347Z,14.95
2022-08-17T04:25:05.829Z,15.00
2022-08-17T04:27:33.408Z,15.10
2022-08-17T04:30:00.977Z,11.82
2022-08-17T04:33:04.468Z,14.82
2022-08-17T04:35:20.107Z,11.63
2022-08-17T04:37:49.394Z,10.07
2022-08-17T04:40:34.972Z,7.20
2022-08-17T04:43:04.347Z,10.32
2022-08-17T04:45:32.614Z,11.65
2022-08-17T04:48:00.818Z,15.98
2022-08-17T04:50:28.413Z,22.02
2022-08-17T04:52:57.710Z,79.38
2022-08-17T04:55:25.400Z,36.60
2022-08-17T04:57:52.989Z,70.50
2022-08-17T05:00:20.725Z,58.90
2022-08-17T05:02:50.736Z,50.58
2022-08-17T05:05:20.786Z,46.63
2022-08-17T05:07:48.615Z,28.60
2022-08-17T05:10:17.749Z,18.05
2022-08-17T05:12:45.255Z,15.80
2022-08-17T05:15:15.884Z,10.55
2022-08-17T05:17:43.564Z,10.05
2022-08-17T05:20:12.125Z,9.13
2022-08-17T05:22:49.186Z,9.77
2022-08-17T05:25:19.765Z,11.45
2022-08-17T05:45:42.781Z,27.48
2022-08-17T05:48:13.698Z,67.10
2022-08-17T05:50:50.462Z,30.48
2022-08-17T05:53:25.319Z,39.45
2022-08-17T05:56:04.258Z,61.63
2022-08-17T05:58:38.812Z,30.95
2022-08-17T06:01:12.424Z,27.10
2022-08-17T06:03:48.795Z,56.83
2022-08-17T06:06:33.056Z,44.80
2022-08-17T06:09:18.733Z,33.42
2022-08-17T06:11:58.634Z,44.10
2022-08-17T06:14:40.168Z,48.13
2022-08-17T06:17:14.732Z,46.78
2022-08-17T06:19:46.669Z,46.03
2022-08-17T06:22:17.651Z,31.95
2022-08-17T06:24:49.951Z,45.33
2022-08-17T06:27:24.391Z,25.08
2022-08-17T06:29:57.681Z,23.30
2022-08-17T06:32:26.986Z,29.05
2022-08-17T06:34:55.237Z,57.20
2022-08-17T06:37:54.785Z,44.80
2022-08-17T06:40:40.059Z,51.90
2022-08-17T06:43:24.685Z,55.55
2022-08-17T06:45:58.572Z,33.58
2022-08-17T06:48:36.321Z,50.63
2022-08-17T06:51:09.264Z,40.97
2022-08-17T06:53:43.088Z,38.42
2022-08-17T06:56:13.868Z,39.40
2022-08-17T06:58:44.265Z,33.63
2022-08-17T07:01:16.089Z,37.30
2022-08-17T07:03:54.547Z,45.30
2022-08-17T07:06:25.979Z,51.67
2022-08-17T07:08:59.264Z,56.80
2022-08-17T07:11:31.341Z,41.35
2022-08-17T07:14:15.308Z,63.17
2022-08-17T07:16:49.703Z,48.55
2022-08-17T07:19:22.712Z,30.40
2022-08-17T07:21:57.988Z,59.05
2022-08-17T07:24:37.869Z,54.42
2022-08-17T07:27:13.534Z,60.72
2022-08-17T07:29:49.384Z,49.22
2022-08-17T07:32:23.154Z,42.17
2022-08-17T07:35:12.904Z,37.13
2022-08-17T07:37:45.867Z,29.48
2022-08-17T07:40:26.963Z,50.92
2022-08-17T07:43:23.401Z,43.10
2022-08-17T07:46:14.553Z,55.75
2022-08-17T07:48:44.327Z,42.13
2022-08-17T07:51:23.024Z,35.60
2022-08-17T07:53:50.611Z,26.88
2022-08-17T07:56:38.548Z,31.25
2022-08-17T07:59:13.007Z,35.40
2022-08-17T08:01:43.099Z,24.70
2022-08-17T08:04:59.348Z,34.88
2022-08-17T08:07:26.903Z,16.10
2022-08-17T08:10:03.909Z,12.65
2022-08-17T08:12:34.589Z,24.45
2022-08-17T08:15:09.655Z,18.85
2022-08-17T08:17:47.451Z,17.05
2022-08-17T08:20:47.701Z,17.60
2022-08-17T08:23:15.406Z,17.77
2022-08-17T08:25:53.602Z,33.50
2022-08-17T08:28:30.868Z,33.08
2022-08-17T08:31:08.611Z,23.67
2022-08-17T08:33:49.796Z,29.40
2022-08-17T08:37:09.715Z,20.83
2022-08-17T08:39:35.253Z,19.27
2022-08-17T08:42:10.197Z,14.80
2022-08-17T08:45:00.473Z,15.27
2022-08-17T08:47:50.128Z,13.02
2022-08-17T08:50:37.395Z,18.00
2022-08-17T08:53:21.254Z,13.93
2022-08-17T08:55:55.744Z,24.05
2022-08-17T08:58:41.977Z,11.82
2022-08-17T09:01:19.210Z,23.60
2022-08-17T09:04:12.029Z,18.42
2022-08-17T09:06:56.443Z,29.73
2022-08-17T09:09:36.462Z,19.50
2022-08-17T09:12:13.191Z,23.33
2022-08-17T09:14:48.715Z,39.53
2022-08-17T09:17:20.213Z,24.73
2022-08-17T09:19:52.764Z,34.75
2022-08-17T09:22:31.276Z,25.67
2022-08-17T09:25:08.909Z,38.75
2022-08-17T09:27:49.586Z,41.08
2022-08-17T09:30:18.265Z,36.05
2022-08-17T09:32:52.044Z,33.67
2022-08-17T09:35:22.837Z,38.55
2022-08-17T09:38:02.723Z,37.63
2022-08-17T09:40:35.462Z,45.78
2022-08-17T09:43:13.070Z,38.67
2022-08-17T09:45:46.092Z,38.30
2022-08-17T09:48:19.406Z,38.28
2022-08-17T09:51:06.035Z,54.30
2022-08-17T09:53:36.395Z,46.55
2022-08-17T09:56:30.053Z,46.97
2022-08-17T09:59:23.366Z,63.45
2022-08-17T10:02:02.916Z,44.78
2022-08-17T10:04:48.216Z,52.40
2022-08-17T10:07:21.215Z,53.95
2022-08-17T10:10:00.722Z,40.28
2022-08-17T10:12:39.929Z,38.38
2022-08-17T10:15:25.805Z,35.70
2022-08-17T10:18:34.890Z,54.20
2022-08-17T10:21:27.696Z,26.38
2022-08-17T10:24:23.070Z,41.83
2022-08-17T10:26:57.125Z,32.20
2022-08-17T10:29:40.774Z,32.40
2022-08-17T10:32:30.042Z,26.25
2022-08-17T10:35:12.835Z,46.85
2022-08-17T10:38:07.315Z,48.30
2022-08-17T10:40:45.288Z,31.83
2022-08-17T10:43:24.724Z,42.65
2022-08-17T10:46:10.593Z,36.17
2022-08-17T10:49:23.046Z,30.30
2022-08-17T10:51:53.421Z,45.05
2022-08-17T10:54:45.610Z,51.53
2022-08-17T10:57:37.265Z,26.33
2022-08-17T11:00:10.159Z,35.33
2022-08-17T11:02:49.347Z,32.75
2022-08-17T11:05:53.815Z,46.08
2022-08-17T11:08:47.848Z,26.85
2022-08-17T11:11:35.891Z,57.72
2022-08-17T11:14:21.383Z,63.28
2022-08-17T11:17:07.383Z,54.40
2022-08-17T11:19:52.300Z,58.28
2022-08-17T11:22:40.406Z,43.17
2022-08-17T11:25:16.206Z,45.75
2022-08-17T11:27:44.941Z,31.30
2022-08-17T11:30:14.864Z,31.40
2022-08-17T11:32:47.577Z,36.63
2022-08-17T11:35:31.840Z,48.38
2022-08-17T11:38:16.831Z,27.27
2022-08-17T11:41:11.677Z,46.58
2022-08-17T11:44:05.373Z,55.05
2022-08-17T11:47:08.534Z,45.28
2022-08-17T11:50:15.107Z,46.03
2022-08-17T11:52:46.714Z,34.40
2022-08-17T11:55:47.523Z,35.47
2022-08-17T11:58:37.342Z,37.95
2022-08-17T12:01:06.858Z,48.63
2022-08-17T12:03:54.038Z,35.47
2022-08-17T12:06:31.186Z,42.72
2022-08-17T12:09:06.636Z,57.20
2022-08-17T12:11:55.688Z,53.75
2022-08-17T12:14:51.663Z,50.38
2022-08-17T12:17:52.057Z,58.75
2022-08-17T12:20:16.201Z,59.75
2022-08-17T12:22:54.729Z,42.50
2022-08-17T12:25:31.356Z,41.67
2022-08-17T12:28:06.808Z,51.30
2022-08-17T12:30:37.348Z,38.17
2022-08-17T12:33:12.594Z,44.05
2022-08-17T12:35:40.124Z,34.25
2022-08-17T12:38:32.516Z,26.42
2022-08-17T12:40:59.724Z,24.98
2022-08-17T12:43:31.100Z,40.65
2022-08-17T12:46:13.292Z,39.42
2022-08-17T12:48:59.104Z,27.55
2022-08-17T12:51:27.549Z,43.45
2022-08-17T12:53:55.971Z,24.17
2022-08-17T12:56:23.712Z,59.17
2022-08-17T12:58:55.459Z,38.75
2022-08-17T13:01:27.028Z,17.05
2022-08-17T13:03:59.646Z,20.60
2022-08-17T13:06:30.125Z,33.80
2022-08-17T13:08:58.059Z,38.05
2022-08-17T13:11:26.247Z,38.63
2022-08-17T13:13:56.128Z,56.88
2022-08-17T13:16:28.003Z,41.15
2022-08-17T13:19:05.809Z,55.83
2022-08-17T13:21:34.301Z,55.03
2022-08-17T13:24:05.848Z,46.97
2022-08-17T13:26:36.609Z,51.92
2022-08-17T13:29:07.803Z,59.67
2022-08-17T13:31:52.434Z,30.52
2022-08-17T13:35:11.813Z,21.02
2022-08-17T13:37:32.608Z,19.63
2022-08-17T13:40:05.935Z,17.40
2022-08-17T13:42:51.985Z,40.78
2022-08-17T13:45:53.260Z,74.18
2022-08-17T13:48:25.692Z,75.93
2022-08-17T13:51:29.780Z,63.75
2022-08-17T13:54:01.848Z,49.28
2022-08-17T13:56:39.677Z,53.25
2022-08-17T13:59:12.277Z,50.10
2022-08-17T14:01:42.315Z,25.70
2022-08-17T14:04:14.201Z,45.88
2022-08-17T14:06:53.441Z,38.10
2022-08-17T14:09:24.241Z,44.33
2022-08-17T14:11:52.638Z,51.55
2022-08-17T14:14:20.180Z,38.75
2022-08-17T14:16:48.385Z,47.92
2022-08-17T14:19:17.582Z,46.45
2022-08-17T14:21:47.266Z,55.03
2022-08-17T14:24:23.046Z,60.10
2022-08-17T14:26:52.859Z,35.15
2022-08-17T14:29:20.991Z,42.70
2022-08-17T14:31:54.606Z,48.83
2022-08-17T14:34:24.630Z,51.75
2022-08-17T14:36:52.521Z,57.50
2022-08-17T14:39:20.565Z,30.73
2022-08-17T14:41:48.196Z,51.90
2022-08-17T14:44:15.931Z,45.80
2022-08-17T14:46:46.258Z,39.15
2022-08-17T14:49:15.522Z,56.75
2022-08-17T14:51:44.780Z,33.40
2022-08-17T14:54:32.867Z,51.33
2022-08-17T14:57:24.767Z,63.17
2022-08-17T14:59:48.825Z,41.17
2022-08-17T15:02:19.469Z,41.35
2022-08-17T15:04:47.767Z,24.50
2022-08-17T15:07:16.688Z,72.50
2022-08-17T15:09:44.531Z,60.00
2022-08-17T15:12:17.804Z,46.65
2022-08-17T15:14:45.300Z,30.58
2022-08-17T15:17:12.865Z,44.85
2022-08-17T15:19:40.552Z,41.00
2022-08-17T15:22:16.751Z,53.00
2022-08-17T15:24:45.566Z,51.00
2022-08-17T15:27:13.119Z,37.38
2022-08-17T15:29:40.640Z,36.90
2022-08-17T15:32:08.230Z,35.80
2022-08-17T15:34:36.396Z,50.65
2022-08-17T15:37:04.011Z,51.20
2022-08-17T15:39:31.520Z,27.30
2022-08-17T15:42:04.604Z,26.65
2022-08-17T15:44:35.118Z,54.63
2022-08-17T15:47:02.805Z,58.40
2022-08-17T15:49:30.294Z,58.55
2022-08-17T15:51:57.784Z,54.58
2022-08-17T15:54:25.287Z,55.58
2022-08-17T15:56:59.236Z,60.70
2022-08-17T15:59:30.890Z,43.88
2022-08-17T16:03:14.239Z,54.00
2022-08-17T16:04:47.145Z,53.85
2022-08-17T16:07:17.024Z,58.67
2022-08-17T16:09:44.937Z,73.82
2022-08-17T16:12:13.967Z,59.83
2022-08-17T16:14:42.826Z,72.63
2022-08-17T16:17:38.325Z,78.18
2022-08-17T16:19:57.860Z,36.13
2022-08-17T16:22:32.280Z,55.03
2022-08-17T16:25:00.372Z,58.25
2022-08-17T16:27:27.844Z,26.70
2022-08-17T16:29:56.932Z,42.53
2022-08-17T16:32:31.937Z,39.40
2022-08-17T16:35:02.877Z,25.00
2022-08-17T16:37:31.083Z,36.95
2022-08-17T16:40:01.895Z,13.77
2022-08-17T16:42:32.671Z,35.45
2022-08-17T16:45:07.193Z,25.92
2022-08-17T16:47:34.691Z,15.13
2022-08-17T16:50:03.695Z,24.98
2022-08-17T16:52:33.418Z,16.80
2022-08-17T16:55:01.923Z,14.70
2022-08-17T16:57:30.400Z,32.13
2022-08-17T16:59:58.387Z,18.10
2022-08-17T17:02:31.216Z,30.13
2022-08-17T17:05:07.440Z,22.90
2022-08-17T17:07:55.407Z,35.70
2022-08-17T17:10:27.252Z,28.67
2022-08-17T17:13:01.724Z,20.27
2022-08-17T17:15:45.133Z,36.35
2022-08-17T17:18:15.308Z,37.95
2022-08-17T17:20:48.555Z,35.95
2022-08-17T17:23:36.895Z,37.65
2022-08-17T17:26:15.799Z,40.28
2022-08-17T17:28:59.572Z,37.55
2022-08-17T17:31:34.149Z,39.88
2022-08-17T17:34:05.403Z,36.78
2022-08-17T17:36:40.213Z,38.13
2022-08-17T17:39:12.982Z,38.65
2022-08-17T17:41:47.092Z,36.83
2022-08-17T17:44:19.893Z,34.97
2022-08-17T17:46:54.027Z,13.07
2022-08-17T17:49:23.228Z,15.60
2022-08-17T17:52:10.042Z,27.42
2022-08-17T17:54:52.308Z,26.88
2022-08-17T17:57:26.245Z,34.17
2022-08-17T18:00:01.427Z,32.17
2022-08-17T18:02:52.183Z,26.95
2022-08-17T18:05:48.233Z,26.48
2022-08-17T18:08:32.165Z,25.77
2022-08-17T18:11:10.405Z,24.20
2022-08-17T18:14:03.419Z,19.27
2022-08-17T18:16:32.963Z,11.13
2022-08-17T18:19:01.378Z,11.68
2022-08-17T18:21:37.688Z,10.30
2022-08-17T18:24:10.422Z,11.13
2022-08-17T18:26:44.657Z,11.05
2022-08-17T18:29:31.061Z,9.32
2022-08-17T18:32:31.076Z,8.98
2022-08-17T18:35:02.250Z,10.20
2022-08-17T18:37:42.544Z,11.05
2022-08-17T18:40:36.038Z,10.00
2022-08-17T18:43:08.503Z,8.50
2022-08-17T18:45:40.752Z,8.63
2022-08-17T18:48:21.553Z,7.85
2022-08-17T18:50:52.246Z,7.97
2022-08-17T18:53:30.397Z,7.18
2022-08-17T18:56:28.286Z,7.50
2022-08-17T18:59:06.041Z,8.85
2022-08-17T19:01:53.421Z,6.97
2022-08-17T19:04:34.104Z,6.50
2022-08-17T19:07:13.636Z,6.72
2022-08-17T19:09:47.931Z,7.30
2022-08-17T19:12:27.271Z,7.10
2022-08-17T19:14:57.819Z,6.82
2022-08-17T19:17:32.690Z,7.05
2022-08-17T19:20:06.339Z,8.35
2022-08-17T19:22:44.707Z,6.50
2022-08-17T19:25:16.938Z,6.57
2022-08-17T19:27:51.353Z,6.30
2022-08-17T19:30:25.872Z,7.55
2022-08-17T19:32:53.918Z,7.82
2022-08-17T19:35:25.694Z,7.13
2022-08-17T19:38:03.963Z,9.00
2022-08-17T19:40:52.713Z,11.75
2022-08-17T19:43:27.873Z,16.35
2022-08-17T19:46:03.791Z,30.35
2022-08-17T19:48:42.715Z,28.40
2022-08-17T19:51:15.422Z,26.10
2022-08-17T19:54:05.433Z,24.35
2022-08-17T19:56:45.400Z,31.83
2022-08-17T19:59:22.152Z,22.90
2022-08-17T20:01:53.732Z,20.40
2022-08-17T20:04:36.536Z,19.70
2022-08-17T20:07:07.914Z,24.83
2022-08-17T20:09:38.595Z,21.90
2022-08-17T20:12:11.524Z,17.00
2022-08-17T20:14:55.686Z,16.67
2022-08-17T20:17:26.024Z,31.70
2022-08-17T20:20:02.514Z,33.17
2022-08-17T20:22:46.740Z,41.42
2022-08-17T20:25:29.854Z,39.65
2022-08-17T20:28:06.851Z,27.17
2022-08-17T20:30:39.465Z,19.90
2022-08-17T20:33:13.101Z,20.83
2022-08-17T20:35:41.321Z,29.80
2022-08-17T20:38:11.524Z,32.17
2022-08-17T20:40:41.068Z,24.85
2022-08-17T20:43:46.730Z,20.13
2022-08-17T20:46:24.690Z,31.67
2022-08-17T20:48:55.443Z,28.90
2022-08-17T20:51:28.073Z,20.63
2022-08-17T20:54:09.027Z,30.30
2022-08-17T20:56:54.910Z,31.90
2022-08-17T20:59:56.277Z,41.70
2022-08-17T21:02:26.433Z,26.35
2022-08-17T21:05:17.350Z,15.15
2022-08-17T21:07:58.804Z,22.85
2022-08-17T21:10:38.309Z,44.90
2022-08-17T21:13:28.270Z,46.17
2022-08-17T21:16:01.881Z,33.65
2022-08-17T21:18:38.550Z,55.58
2022-08-17T21:21:20.433Z,56.20
2022-08-17T21:24:08.972Z,41.20
2022-08-17T21:26:51.102Z,49.20
2022-08-17T21:29:30.906Z,41.47
2022-08-17T21:32:24.736Z,22.75
2022-08-17T21:35:27.229Z,41.45
2022-08-17T21:37:59.572Z,38.25
2022-08-17T21:40:29.354Z,46.88
2022-08-17T21:43:00.189Z,49.28
2022-08-17T21:45:35.480Z,36.22
2022-08-17T21:48:19.691Z,22.25
2022-08-17T21:50:58.253Z,55.80
2022-08-17T21:53:33.270Z,31.35
2022-08-17T21:56:01.598Z,59.28
2022-08-17T21:58:32.199Z,52.20
2022-08-17T22:01:23.976Z,32.70
2022-08-17T22:03:59.819Z,52.75
2022-08-17T22:06:30.228Z,46.40
2022-08-17T22:09:04.519Z,53.95
2022-08-17T22:11:33.091Z,56.58
2022-08-17T22:14:05.890Z,54.78
2022-08-17T22:16:33.828Z,50.78
2022-08-17T22:19:02.779Z,41.08
2022-08-17T22:21:30.311Z,57.00
2022-08-17T22:24:04.859Z,41.13
2022-08-17T22:26:59.403Z,36.85
2022-08-17T22:29:52.894Z,36.67
2022-08-17T22:32:38.370Z,47.60
2022-08-17T22:35:39.780Z,51.40
2022-08-17T22:38:30.873Z,52.17
2022-08-17T22:41:31.884Z,39.90
2022-08-17T22:44:02.316Z,51.22
2022-08-17T22:46:30.508Z,30.88
2022-08-17T22:49:00.314Z,22.70
2022-08-17T22:51:31.881Z,37.15
2022-08-17T22:54:19.548Z,33.22
2022-08-17T22:57:18.927Z,28.25
2022-08-17T22:59:49.369Z,42.92
2022-08-17T23:02:23.506Z,29.67
2022-08-17T23:04:54.230Z,51.28
2022-08-17T23:07:23.083Z,43.75
2022-08-17T23:09:52.664Z,29.45
2022-08-17T23:12:26.231Z,36.25
2022-08-17T23:14:58.409Z,28.98
2022-08-17T23:17:26.000Z,28.40
2022-08-17T23:19:54.727Z,26.38
2022-08-17T23:22:25.236Z,43.90
2022-08-17T23:24:52.826Z,40.17
2022-08-17T23:27:22.088Z,29.48
2022-08-17T23:29:50.419Z,14.60
2022-08-17T23:32:19.091Z,44.25
2022-08-17T23:34:48.001Z,40.70
2022-08-17T23:37:16.717Z,49.20
2022-08-17T23:39:46.283Z,31.40
2022-08-17T23:42:21.553Z,26.05
2022-08-17T23:44:50.191Z,44.42
2022-08-17T23:47:17.895Z,36.10
2022-08-17T23:49:45.621Z,39.58
2022-08-17T23:52:16.526Z,39.58
2022-08-17T23:54:47.793Z,42.85
2022-08-17T23:57:19.102Z,42.22
2022-08-17T23:59:46.946Z,36.63
